Avon Park, Florida
Current Conditions -  °F | °C
As of 5:35 AM on Wednesday 22 Oct 2014 (Local Time) from KBOW Reporting Station
Clear Clear  
Wind Chill: 66°   Ceiling: Unl
Heat Index: 66°   Visibility: 10mi
Dew Point: 66°   Wind: 0mph
Humidity: 100%   Direction: NA
Pressure: 29.96"   Gusts: NA
Location:  27.6°N, 81.51°W
Report Text: KBOW 220935Z AUTO 00000KT 10SM CLR 19/19 A2996 RMK AO2
Loading
Personal Weather Stations






























Interactive Weather Map
Tropical Storm Tracking
New forecast layout! Learn more

10-Day Weather Forecast

Advertisements
Track Severe Weather on mobile